createdAt,value
2017-11-11T00:00:02.024Z,782.67
2017-11-11T00:00:06.276Z,782.64
2017-11-11T00:00:10.653Z,782.64
2017-11-11T00:00:15.009Z,782.63
2017-11-11T00:00:18.965Z,782.63
2017-11-11T00:00:23.181Z,782.62
2017-11-11T00:00:27.687Z,782.57
2017-11-11T00:00:32.190Z,782.58
2017-11-11T00:00:36.685Z,782.55
2017-11-11T00:00:40.902Z,782.58
2017-11-11T00:00:45.426Z,782.56
2017-11-11T00:00:49.789Z,782.54
2017-11-11T00:00:54.007Z,782.57
2017-11-11T00:00:58.369Z,782.54
2017-11-11T00:01:02.832Z,782.58
2017-11-11T00:01:07.181Z,782.61
2017-11-11T00:01:11.680Z,782.58
2017-11-11T00:01:16.051Z,782.58
2017-11-11T00:01:20.542Z,782.6
2017-11-11T00:01:24.899Z,782.59
2017-11-11T00:01:29.254Z,782.57
2017-11-11T00:01:33.747Z,782.55
2017-11-11T00:01:38.116Z,782.55
2017-11-11T00:01:42.606Z,782.59
2017-11-11T00:01:47.105Z,782.57
2017-11-11T00:01:51.471Z,782.59
2017-11-11T00:01:55.837Z,782.56
2017-11-11T00:02:00.188Z,782.59
2017-11-11T00:02:04.835Z,782.57
2017-11-11T00:02:09.204Z,782.56
2017-11-11T00:02:13.555Z,782.56
2017-11-11T00:02:17.514Z,782.54
2017-11-11T00:02:22.034Z,782.56
2017-11-11T00:02:26.319Z,782.57
2017-11-11T00:02:30.555Z,782.56
2017-11-11T00:02:34.776Z,782.55
2017-11-11T00:02:39.155Z,782.54
2017-11-11T00:02:43.378Z,782.58
2017-11-11T00:02:47.739Z,782.56
2017-11-11T00:02:52.242Z,782.55
2017-11-11T00:02:56.461Z,782.51
2017-11-11T00:03:00.824Z,782.54
2017-11-11T00:03:05.334Z,782.55
2017-11-11T00:03:09.840Z,782.5
2017-11-11T00:03:14.191Z,782.53
2017-11-11T00:03:18.468Z,782.52
2017-11-11T00:03:22.548Z,782.55
2017-11-11T00:03:27.048Z,782.58
2017-11-11T00:03:31.277Z,782.58
2017-11-11T00:03:35.623Z,782.51
2017-11-11T00:03:40.105Z,782.54
2017-11-11T00:03:44.505Z,782.55
2017-11-11T00:03:49.020Z,782.56
2017-11-11T00:03:53.240Z,782.51
2017-11-11T00:03:57.594Z,782.51
2017-11-11T00:04:02.073Z,782.55
2017-11-11T00:04:06.419Z,782.56
2017-11-11T00:04:10.653Z,782.5
2017-11-11T00:04:15.012Z,782.51
2017-11-11T00:04:19.507Z,782.49
2017-11-11T00:04:24.013Z,782.5
2017-11-11T00:04:28.249Z,782.5
2017-11-11T00:04:32.740Z,782.42
2017-11-11T00:04:37.280Z,782.49
2017-11-11T00:04:41.629Z,782.48
2017-11-11T00:04:45.991Z,782.5
2017-11-11T00:04:50.528Z,782.49
2017-11-11T00:04:54.757Z,782.52
2017-11-11T00:04:59.104Z,782.51
2017-11-11T00:05:03.436Z,782.51
2017-11-11T00:05:07.783Z,782.49
2017-11-11T00:05:12.276Z,782.48
2017-11-11T00:05:16.649Z,782.44
2017-11-11T00:05:20.990Z,782.47
2017-11-11T00:05:25.338Z,782.49
2017-11-11T00:05:29.855Z,782.47
2017-11-11T00:05:34.200Z,782.48
2017-11-11T00:05:38.432Z,782.46
2017-11-11T00:05:42.815Z,782.47
2017-11-11T00:05:47.171Z,782.46
2017-11-11T00:05:51.656Z,782.43
2017-11-11T00:05:56.018Z,782.46
2017-11-11T00:06:00.508Z,782.45
2017-11-11T00:06:05.222Z,782.48
2017-11-11T00:06:09.746Z,782.47
2017-11-11T00:06:14.101Z,782.46
2017-11-11T00:06:18.192Z,782.47
2017-11-11T00:06:22.556Z,782.46
2017-11-11T00:06:26.913Z,782.45
2017-11-11T00:06:31.138Z,782.46
2017-11-11T00:06:35.353Z,782.45
2017-11-11T00:06:39.576Z,782.43
2017-11-11T00:06:43.944Z,782.45
2017-11-11T00:06:48.306Z,782.42
2017-11-11T00:06:52.659Z,782.44
2017-11-11T00:06:57.021Z,782.42
2017-11-11T00:07:01.384Z,782.42
2017-11-11T00:07:05.470Z,782.43
2017-11-11T00:07:09.825Z,782.42
2017-11-11T00:07:14.197Z,782.42
2017-11-11T00:07:18.686Z,782.44
2017-11-11T00:07:23.049Z,782.45
2017-11-11T00:07:27.431Z,782.37
2017-11-11T00:07:31.790Z,782.36
2017-11-11T00:07:36.323Z,782.37
2017-11-11T00:07:40.682Z,782.37
2017-11-11T00:07:45.084Z,782.42
2017-11-11T00:07:49.463Z,782.43
2017-11-11T00:07:53.964Z,782.42
2017-11-11T00:07:58.458Z,782.43
2017-11-11T00:08:03.010Z,782.42
2017-11-11T00:08:07.500Z,782.41
2017-11-11T00:08:11.874Z,782.41
2017-11-11T00:08:16.231Z,782.42
2017-11-11T00:08:20.590Z,782.45
2017-11-11T00:08:24.679Z,782.44
2017-11-11T00:08:29.189Z,782.42
2017-11-11T00:08:33.537Z,782.39
2017-11-11T00:08:37.905Z,782.33
2017-11-11T00:08:42.256Z,782.39
2017-11-11T00:08:46.746Z,782.41
2017-11-11T00:08:51.253Z,782.41
2017-11-11T00:08:55.733Z,782.39
2017-11-11T00:08:59.950Z,782.42
2017-11-11T00:09:04.744Z,782.4
2017-11-11T00:09:09.096Z,782.42
2017-11-11T00:09:13.449Z,782.41
2017-11-11T00:09:17.819Z,782.42
2017-11-11T00:09:22.046Z,782.41
2017-11-11T00:09:26.278Z,782.41
2017-11-11T00:09:30.778Z,782.45
2017-11-11T00:09:35.259Z,782.44
2017-11-11T00:09:39.603Z,782.44
2017-11-11T00:09:43.977Z,782.43
2017-11-11T00:09:48.477Z,782.45
2017-11-11T00:09:52.826Z,782.44
2017-11-11T00:09:57.327Z,782.43
2017-11-11T00:10:01.818Z,782.44
2017-11-11T00:10:06.260Z,782.41
2017-11-11T00:10:10.530Z,782.38
2017-11-11T00:10:14.884Z,782.43
2017-11-11T00:10:18.985Z,782.45
2017-11-11T00:10:23.341Z,782.42
2017-11-11T00:10:27.564Z,782.36
2017-11-11T00:10:31.922Z,782.44
2017-11-11T00:10:36.148Z,782.43
2017-11-11T00:10:40.364Z,782.42
2017-11-11T00:10:44.729Z,782.41
2017-11-11T00:10:48.947Z,782.43
2017-11-11T00:10:53.296Z,782.41
2017-11-11T00:10:57.792Z,782.45
2017-11-11T00:11:02.282Z,782.43
2017-11-11T00:11:06.236Z,782.43
2017-11-11T00:11:10.742Z,782.43
2017-11-11T00:11:14.968Z,782.42
2017-11-11T00:11:19.063Z,782.4
2017-11-11T00:11:23.148Z,782.41
2017-11-11T00:11:27.367Z,782.43
2017-11-11T00:11:31.857Z,782.42
2017-11-11T00:11:36.355Z,782.42
2017-11-11T00:11:40.842Z,782.43
2017-11-11T00:11:45.327Z,782.45
2017-11-11T00:11:49.555Z,782.48
2017-11-11T00:11:54.055Z,782.44
2017-11-11T00:11:58.411Z,782.44
2017-11-11T00:12:02.904Z,782.46
2017-11-11T00:12:07.264Z,782.48
2017-11-11T00:12:11.626Z,782.47
2017-11-11T00:12:16.111Z,782.42
2017-11-11T00:12:20.326Z,782.46
2017-11-11T00:12:24.550Z,782.47
2017-11-11T00:12:29.046Z,782.47
2017-11-11T00:12:33.420Z,782.51
2017-11-11T00:12:37.785Z,782.44
2017-11-11T00:12:42.288Z,782.48
2017-11-11T00:12:46.799Z,782.48
2017-11-11T00:12:51.289Z,782.47
2017-11-11T00:12:55.657Z,782.46
2017-11-11T00:13:00.019Z,782.5
2017-11-11T00:13:04.384Z,782.48
2017-11-11T00:13:08.742Z,782.44
2017-11-11T00:13:13.236Z,782.47
2017-11-11T00:13:17.588Z,782.45
2017-11-11T00:13:21.940Z,782.49
2017-11-11T00:13:26.161Z,782.47
2017-11-11T00:13:30.516Z,782.49
2017-11-11T00:13:34.613Z,782.51
2017-11-11T00:13:39.013Z,782.49
2017-11-11T00:13:43.494Z,782.42
2017-11-11T00:13:47.979Z,782.44
2017-11-11T00:13:52.351Z,782.45
2017-11-11T00:13:56.728Z,782.41
2017-11-11T00:14:00.844Z,782.52
2017-11-11T00:14:05.068Z,782.48
2017-11-11T00:14:09.287Z,782.48
2017-11-11T00:14:13.665Z,782.54
2017-11-11T00:14:18.157Z,782.52
2017-11-11T00:14:22.513Z,782.52
2017-11-11T00:14:27.002Z,782.52
2017-11-11T00:14:31.494Z,782.51
2017-11-11T00:14:35.983Z,782.53
2017-11-11T00:14:40.354Z,782.53
2017-11-11T00:14:44.579Z,782.57
2017-11-11T00:14:49.058Z,782.54
2017-11-11T00:14:53.545Z,782.53
2017-11-11T00:14:57.910Z,782.55
2017-11-11T00:15:02.275Z,782.56
2017-11-11T00:15:06.777Z,782.5
2017-11-11T00:15:11.133Z,782.54
2017-11-11T00:15:15.482Z,782.53
2017-11-11T00:15:19.990Z,782.53
2017-11-11T00:15:23.943Z,782.54
2017-11-11T00:15:28.438Z,782.54
2017-11-11T00:15:32.992Z,782.53
2017-11-11T00:15:37.343Z,782.54
2017-11-11T00:15:41.564Z,782.57
2017-11-11T00:15:45.974Z,782.51
2017-11-11T00:15:50.482Z,782.54
2017-11-11T00:15:54.831Z,782.57
2017-11-11T00:15:59.065Z,782.53
2017-11-11T00:16:03.291Z,782.55
2017-11-11T00:16:07.780Z,782.57
2017-11-11T00:16:11.729Z,782.58
2017-11-11T00:16:15.942Z,782.58
2017-11-11T00:16:20.288Z,782.59
2017-11-11T00:16:24.518Z,782.58
2017-11-11T00:16:28.734Z,782.58
2017-11-11T00:16:33.096Z,782.55
2017-11-11T00:16:37.318Z,782.57
2017-11-11T00:16:41.667Z,782.53
2017-11-11T00:16:46.151Z,782.55
2017-11-11T00:16:50.389Z,782.55
2017-11-11T00:16:54.881Z,782.53
2017-11-11T00:16:59.368Z,782.57
2017-11-11T00:17:04.132Z,782.54
2017-11-11T00:17:08.350Z,782.54
2017-11-11T00:17:12.829Z,782.57
2017-11-11T00:17:17.336Z,782.58
2017-11-11T00:17:21.824Z,782.59
2017-11-11T00:17:25.781Z,782.61
2017-11-11T00:17:30.269Z,782.59
2017-11-11T00:17:34.765Z,782.6
2017-11-11T00:17:39.265Z,782.6
2017-11-11T00:17:43.619Z,782.61
2017-11-11T00:17:48.114Z,782.54
2017-11-11T00:17:52.212Z,782.6
2017-11-11T00:17:56.572Z,782.6
2017-11-11T00:18:01.056Z,782.59
2017-11-11T00:18:05.408Z,782.59
2017-11-11T00:18:09.649Z,782.57
2017-11-11T00:18:14.133Z,782.6
2017-11-11T00:18:18.626Z,782.6
2017-11-11T00:18:22.893Z,782.56
2017-11-11T00:18:27.112Z,782.58
2017-11-11T00:18:31.484Z,782.59
2017-11-11T00:18:35.755Z,782.57
2017-11-11T00:18:40.238Z,782.54
2017-11-11T00:18:44.602Z,782.56
2017-11-11T00:18:49.101Z,782.59
2017-11-11T00:18:53.322Z,782.59
2017-11-11T00:18:57.802Z,782.62
2017-11-11T00:19:02.446Z,782.6
2017-11-11T00:19:06.947Z,782.58
2017-11-11T00:19:11.430Z,782.58
2017-11-11T00:19:15.793Z,782.58
2017-11-11T00:19:20.287Z,782.6
2017-11-11T00:19:24.241Z,782.59
2017-11-11T00:19:28.736Z,782.58
2017-11-11T00:19:33.226Z,782.54
2017-11-11T00:19:37.580Z,782.54
2017-11-11T00:19:41.807Z,782.6
2017-11-11T00:19:46.333Z,782.59
2017-11-11T00:19:50.813Z,782.6
2017-11-11T00:19:55.329Z,782.6
2017-11-11T00:19:59.819Z,782.61
2017-11-11T00:20:04.317Z,782.57
2017-11-11T00:20:08.558Z,782.6
2017-11-11T00:20:13.067Z,782.61
2017-11-11T00:20:17.554Z,782.62
2017-11-11T00:20:22.054Z,782.61
2017-11-11T00:20:26.136Z,782.6
2017-11-11T00:20:30.491Z,782.64
2017-11-11T00:20:35.028Z,782.62
2017-11-11T00:20:39.389Z,782.61
2017-11-11T00:20:43.868Z,782.59
2017-11-11T00:20:48.385Z,782.64
2017-11-11T00:20:52.741Z,782.61
2017-11-11T00:20:57.089Z,782.59
2017-11-11T00:21:01.453Z,782.63
2017-11-11T00:21:06.173Z,782.65
2017-11-11T00:21:10.535Z,782.62
2017-11-11T00:21:15.036Z,782.65
2017-11-11T00:21:19.528Z,782.66
2017-11-11T00:21:23.761Z,782.65
2017-11-11T00:21:28.161Z,782.65
2017-11-11T00:21:32.652Z,782.65
2017-11-11T00:21:37.005Z,782.64
2017-11-11T00:21:41.363Z,782.66
2017-11-11T00:21:45.844Z,782.66
2017-11-11T00:21:50.071Z,782.67
2017-11-11T00:21:54.436Z,782.63
2017-11-11T00:21:58.935Z,782.65
2017-11-11T00:22:03.791Z,782.65
2017-11-11T00:22:08.048Z,782.67
2017-11-11T00:22:12.530Z,782.66
2017-11-11T00:22:17.041Z,782.62
2017-11-11T00:22:21.551Z,782.64
2017-11-11T00:22:26.035Z,782.61
2017-11-11T00:22:30.401Z,782.64
2017-11-11T00:22:34.757Z,782.62
2017-11-11T00:22:39.234Z,782.61
2017-11-11T00:22:43.331Z,782.66
2017-11-11T00:22:47.822Z,782.62
2017-11-11T00:22:52.043Z,782.63
2017-11-11T00:22:56.397Z,782.62
2017-11-11T00:23:00.619Z,782.57
2017-11-11T00:23:04.966Z,782.58
2017-11-11T00:23:09.451Z,782.56
2017-11-11T00:23:13.945Z,782.58
2017-11-11T00:23:18.452Z,782.64
2017-11-11T00:23:22.939Z,782.62
2017-11-11T00:23:27.065Z,782.63
2017-11-11T00:23:31.564Z,782.63
2017-11-11T00:23:36.055Z,782.61
2017-11-11T00:23:40.572Z,782.61
2017-11-11T00:23:44.921Z,782.62
2017-11-11T00:23:49.415Z,782.64
2017-11-11T00:23:53.809Z,782.57
2017-11-11T00:23:58.300Z,782.59
2017-11-11T00:24:02.709Z,782.59
2017-11-11T00:24:07.076Z,782.61
2017-11-11T00:24:11.561Z,782.64
2017-11-11T00:24:15.915Z,782.61
2017-11-11T00:24:20.274Z,782.62
2017-11-11T00:24:24.497Z,782.63
2017-11-11T00:24:28.994Z,782.62
2017-11-11T00:24:33.220Z,782.66
2017-11-11T00:24:37.570Z,782.66
2017-11-11T00:24:42.069Z,782.65
2017-11-11T00:24:46.569Z,782.57
2017-11-11T00:24:51.048Z,782.59
2017-11-11T00:24:55.141Z,782.61
2017-11-11T00:24:59.508Z,782.62
2017-11-11T00:25:04.047Z,782.64
2017-11-11T00:25:08.426Z,782.67
2017-11-11T00:25:12.787Z,782.62
2017-11-11T00:25:17.142Z,782.7
2017-11-11T00:25:21.536Z,782.67
2017-11-11T00:25:26.029Z,782.69
2017-11-11T00:25:30.512Z,782.69
2017-11-11T00:25:34.735Z,782.71
2017-11-11T00:25:38.961Z,782.71
2017-11-11T00:25:43.442Z,782.74
2017-11-11T00:25:47.804Z,782.74
2017-11-11T00:25:52.312Z,782.68
2017-11-11T00:25:56.799Z,782.65
2017-11-11T00:26:01.344Z,782.65
2017-11-11T00:26:05.888Z,782.66
2017-11-11T00:26:10.371Z,782.71
2017-11-11T00:26:14.746Z,782.73
2017-11-11T00:26:18.966Z,782.74
2017-11-11T00:26:23.316Z,782.71
2017-11-11T00:26:27.810Z,782.76
2017-11-11T00:26:32.161Z,782.72
2017-11-11T00:26:36.551Z,782.72
2017-11-11T00:26:41.059Z,782.72
2017-11-11T00:26:45.544Z,782.73
2017-11-11T00:26:49.898Z,782.71
2017-11-11T00:26:54.263Z,782.74
2017-11-11T00:26:58.757Z,782.7
2017-11-11T00:27:03.129Z,782.71
2017-11-11T00:27:07.361Z,782.71
2017-11-11T00:27:11.844Z,782.72
2017-11-11T00:27:16.213Z,782.73
2017-11-11T00:27:20.717Z,782.76
2017-11-11T00:27:25.201Z,782.73
2017-11-11T00:27:29.568Z,782.74
2017-11-11T00:27:33.812Z,782.72
2017-11-11T00:27:37.890Z,782.74
2017-11-11T00:27:42.398Z,782.74
2017-11-11T00:27:46.609Z,782.74
2017-11-11T00:27:51.110Z,782.75
2017-11-11T00:27:55.463Z,782.75
2017-11-11T00:27:59.948Z,782.73
2017-11-11T00:28:04.170Z,782.75
2017-11-11T00:28:08.531Z,782.8
2017-11-11T00:28:13.015Z,782.75
2017-11-11T00:28:17.516Z,782.75
2017-11-11T00:28:21.997Z,782.78
2017-11-11T00:28:26.093Z,782.75
2017-11-11T00:28:30.466Z,782.78
2017-11-11T00:28:34.688Z,782.76
2017-11-11T00:28:39.188Z,782.75
2017-11-11T00:28:43.688Z,782.79
2017-11-11T00:28:48.036Z,782.78
2017-11-11T00:28:51.996Z,782.79
2017-11-11T00:28:56.493Z,782.8
2017-11-11T00:29:00.982Z,782.78
2017-11-11T00:29:05.614Z,782.78
2017-11-11T00:29:10.112Z,782.7
2017-11-11T00:29:14.588Z,782.74
2017-11-11T00:29:19.078Z,782.74
2017-11-11T00:29:23.571Z,782.76
2017-11-11T00:29:27.941Z,782.77
2017-11-11T00:29:32.320Z,782.76
2017-11-11T00:29:36.679Z,782.79
2017-11-11T00:29:41.168Z,782.79
2017-11-11T00:29:45.652Z,782.79
2017-11-11T00:29:50.145Z,782.82
2017-11-11T00:29:54.675Z,782.78
2017-11-11T00:29:59.161Z,782.81
2017-11-11T00:30:03.821Z,782.8
2017-11-11T00:30:08.345Z,782.79
2017-11-11T00:30:12.708Z,782.8
2017-11-11T00:30:17.217Z,782.85
2017-11-11T00:30:21.567Z,782.84
2017-11-11T00:30:25.654Z,782.83
2017-11-11T00:30:30.154Z,782.81
2017-11-11T00:30:34.381Z,782.81
2017-11-11T00:30:38.792Z,782.83
2017-11-11T00:30:43.108Z,782.84
2017-11-11T00:30:47.599Z,782.85
2017-11-11T00:30:51.965Z,782.86
2017-11-11T00:30:56.464Z,782.83
2017-11-11T00:31:00.703Z,782.86
2017-11-11T00:31:05.047Z,782.85
2017-11-11T00:31:09.422Z,782.82
2017-11-11T00:31:13.951Z,782.8
2017-11-11T00:31:18.297Z,782.88
2017-11-11T00:31:22.665Z,782.82
2017-11-11T00:31:27.031Z,782.88
2017-11-11T00:31:31.398Z,782.86
2017-11-11T00:31:35.624Z,782.86
2017-11-11T00:31:39.973Z,782.88
2017-11-11T00:31:44.458Z,782.85
2017-11-11T00:31:48.966Z,782.88
2017-11-11T00:31:53.451Z,782.86
2017-11-11T00:31:57.944Z,782.86
2017-11-11T00:32:02.538Z,782.86
2017-11-11T00:32:06.904Z,782.88
2017-11-11T00:32:11.394Z,782.86
2017-11-11T00:32:15.614Z,782.86
2017-11-11T00:32:19.968Z,782.89
2017-11-11T00:32:24.056Z,782.88
2017-11-11T00:32:28.412Z,782.92
2017-11-11T00:32:32.899Z,782.86
2017-11-11T00:32:37.121Z,782.91
2017-11-11T00:32:41.635Z,782.87
2017-11-11T00:32:45.993Z,782.89
2017-11-11T00:32:50.363Z,782.91
2017-11-11T00:32:54.881Z,782.92
2017-11-11T00:32:59.240Z,782.89
2017-11-11T00:33:03.862Z,782.9
2017-11-11T00:33:08.229Z,782.86
2017-11-11T00:33:12.722Z,782.84
2017-11-11T00:33:17.221Z,782.9
2017-11-11T00:33:21.586Z,782.85
2017-11-11T00:33:26.074Z,782.87
2017-11-11T00:33:30.316Z,782.89
2017-11-11T00:33:34.547Z,782.87
2017-11-11T00:33:38.760Z,782.88
2017-11-11T00:33:43.119Z,782.86
2017-11-11T00:33:47.365Z,782.87
2017-11-11T00:33:51.734Z,782.94
2017-11-11T00:33:56.089Z,782.91
2017-11-11T00:34:00.593Z,782.91
2017-11-11T00:34:05.080Z,782.96
2017-11-11T00:34:09.306Z,782.9
2017-11-11T00:34:13.802Z,782.95
2017-11-11T00:34:18.022Z,782.97
2017-11-11T00:34:22.380Z,782.94
2017-11-11T00:34:26.749Z,782.97
2017-11-11T00:34:31.107Z,782.99
2017-11-11T00:34:35.471Z,782.96
2017-11-11T00:34:39.963Z,782.96
2017-11-11T00:34:44.451Z,782.95
2017-11-11T00:34:48.951Z,782.97
2017-11-11T00:34:53.438Z,782.97
2017-11-11T00:34:57.790Z,782.98
2017-11-11T00:35:02.513Z,782.97
2017-11-11T00:35:07.043Z,782.94
2017-11-11T00:35:11.397Z,783
2017-11-11T00:35:15.759Z,782.97
2017-11-11T00:35:20.244Z,782.93
2017-11-11T00:35:24.603Z,782.94
2017-11-11T00:35:29.117Z,782.98
2017-11-11T00:35:33.609Z,783.01
2017-11-11T00:35:37.974Z,783.01
2017-11-11T00:35:42.478Z,783.02
2017-11-11T00:35:46.972Z,782.99
2017-11-11T00:35:51.472Z,782.99
2017-11-11T00:35:56.013Z,783.04
2017-11-11T00:36:00.497Z,783.01
2017-11-11T00:36:05.066Z,783
2017-11-11T00:36:09.417Z,783
2017-11-11T00:36:13.913Z,783.03
2017-11-11T00:36:18.134Z,783.02
2017-11-11T00:36:22.640Z,783.02
2017-11-11T00:36:26.734Z,783.04
2017-11-11T00:36:31.227Z,783.01
2017-11-11T00:36:35.589Z,782.96
2017-11-11T00:36:39.943Z,783
2017-11-11T00:36:44.430Z,782.99
2017-11-11T00:36:48.940Z,783.02
2017-11-11T00:36:53.289Z,783.06
2017-11-11T00:36:57.516Z,783.08
2017-11-11T00:37:01.914Z,783.06
2017-11-11T00:37:06.454Z,783.07
2017-11-11T00:37:10.945Z,783.07
2017-11-11T00:37:15.441Z,783.03
2017-11-11T00:37:19.920Z,783.05
2017-11-11T00:37:24.014Z,783.04
2017-11-11T00:37:28.397Z,783.06
2017-11-11T00:37:32.745Z,783.07
2017-11-11T00:37:37.109Z,783.08
2017-11-11T00:37:41.472Z,783.08
2017-11-11T00:37:45.822Z,783.05
2017-11-11T00:37:50.312Z,783.06
2017-11-11T00:37:54.809Z,783.08
2017-11-11T00:37:59.175Z,783.06
2017-11-11T00:38:03.873Z,783.08
2017-11-11T00:38:08.283Z,783.06
2017-11-11T00:38:12.513Z,783.12
2017-11-11T00:38:16.873Z,783.11
2017-11-11T00:38:21.230Z,783.08
2017-11-11T00:38:25.445Z,783.09
2017-11-11T00:38:29.807Z,783.09
2017-11-11T00:38:34.168Z,783.1
2017-11-11T00:38:38.661Z,783.11
2017-11-11T00:38:43.037Z,783.06
2017-11-11T00:38:47.123Z,783.08
2017-11-11T00:38:51.483Z,783.07
2017-11-11T00:38:55.965Z,783.11
2017-11-11T00:39:00.491Z,783.1
2017-11-11T00:39:05.136Z,783.1
2017-11-11T00:39:09.515Z,783.11
2017-11-11T00:39:14.005Z,783.09
2017-11-11T00:39:18.358Z,783.1
2017-11-11T00:39:22.722Z,783.1
2017-11-11T00:39:26.957Z,783.1
2017-11-11T00:39:31.442Z,783.13
2017-11-11T00:39:35.787Z,783.05
2017-11-11T00:39:40.153Z,783.12
2017-11-11T00:39:44.378Z,783.1
2017-11-11T00:39:48.465Z,783.12
2017-11-11T00:39:52.689Z,783.12
2017-11-11T00:39:57.072Z,783.15
2017-11-11T00:40:01.771Z,783.14
2017-11-11T00:40:06.000Z,783.15
2017-11-11T00:40:10.349Z,783.14
2017-11-11T00:40:14.831Z,783.1
2017-11-11T00:40:19.194Z,783.11
2017-11-11T00:40:23.710Z,783.09
2017-11-11T00:40:28.212Z,783.11
2017-11-11T00:40:32.730Z,783.11
2017-11-11T00:40:36.940Z,783.14
2017-11-11T00:40:41.294Z,783.19
2017-11-11T00:40:45.249Z,783.13
2017-11-11T00:40:49.619Z,783.13
2017-11-11T00:40:53.965Z,783.15
2017-11-11T00:40:58.312Z,783.14
2017-11-11T00:41:02.833Z,783.11
2017-11-11T00:41:07.329Z,783.1
2017-11-11T00:41:11.546Z,783.13
2017-11-11T00:41:16.048Z,783.16
2017-11-11T00:41:20.531Z,783.16
2017-11-11T00:41:24.753Z,783.17
2017-11-11T00:41:28.992Z,783.11
2017-11-11T00:41:33.476Z,783.09
2017-11-11T00:41:37.977Z,783.12
2017-11-11T00:41:42.488Z,783.15
2017-11-11T00:41:46.987Z,783.17
2017-11-11T00:41:51.350Z,783.16
2017-11-11T00:41:55.849Z,783.12
2017-11-11T00:42:00.202Z,783.13
2017-11-11T00:42:04.652Z,783.12
2017-11-11T00:42:09.008Z,783.13
2017-11-11T00:42:13.240Z,783.15
2017-11-11T00:42:17.458Z,783.14
2017-11-11T00:42:21.853Z,783.16
2017-11-11T00:42:26.082Z,783.12
2017-11-11T00:42:30.445Z,783.17
2017-11-11T00:42:34.814Z,783.14
2017-11-11T00:42:39.172Z,783.2
2017-11-11T00:42:43.533Z,783.16
2017-11-11T00:42:47.905Z,783.19
2017-11-11T00:42:52.390Z,783.16
2017-11-11T00:42:56.621Z,783.18
2017-11-11T00:43:01.112Z,783.17
2017-11-11T00:43:05.611Z,783.2
2017-11-11T00:43:09.832Z,783.19
2017-11-11T00:43:14.059Z,783.22
2017-11-11T00:43:18.563Z,783.17
2017-11-11T00:43:23.068Z,783.21
2017-11-11T00:43:27.632Z,783.22
2017-11-11T00:43:31.985Z,783.17
2017-11-11T00:43:36.487Z,783.2
2017-11-11T00:43:40.851Z,783.21
2017-11-11T00:43:45.231Z,783.22
2017-11-11T00:43:49.711Z,783.19
2017-11-11T00:43:54.216Z,783.18
2017-11-11T00:43:58.764Z,783.2
2017-11-11T00:44:03.116Z,783.19
2017-11-11T00:44:07.636Z,783.14
2017-11-11T00:44:12.149Z,783.19
2017-11-11T00:44:16.241Z,783.18
2017-11-11T00:44:20.467Z,783.2
2017-11-11T00:44:24.972Z,783.21
2017-11-11T00:44:29.461Z,783.2
2017-11-11T00:44:33.840Z,783.22
2017-11-11T00:44:38.202Z,783.22
2017-11-11T00:44:42.298Z,783.22
2017-11-11T00:44:46.801Z,783.18
2017-11-11T00:44:51.298Z,783.23
2017-11-11T00:44:55.782Z,783.22
2017-11-11T00:45:00.276Z,783.23
2017-11-11T00:45:04.646Z,783.2
2017-11-11T00:45:09.134Z,783.22
2017-11-11T00:45:13.641Z,783.22
2017-11-11T00:45:18.141Z,783.24
2017-11-11T00:45:22.491Z,783.25
2017-11-11T00:45:26.592Z,783.27
2017-11-11T00:45:30.983Z,783.24
2017-11-11T00:45:35.463Z,783.27
2017-11-11T00:45:39.816Z,783.25
2017-11-11T00:45:44.348Z,783.27
2017-11-11T00:45:48.833Z,783.22
2017-11-11T00:45:53.319Z,783.17
2017-11-11T00:45:57.690Z,783.23
2017-11-11T00:46:02.042Z,783.23
2017-11-11T00:46:06.275Z,783.25
2017-11-11T00:46:10.785Z,783.25
2017-11-11T00:46:15.135Z,783.24
2017-11-11T00:46:19.624Z,783.24
2017-11-11T00:46:23.978Z,783.25
2017-11-11T00:46:28.464Z,783.25
2017-11-11T00:46:32.831Z,783.23
2017-11-11T00:46:37.192Z,783.28
2017-11-11T00:46:41.560Z,783.27
2017-11-11T00:46:46.063Z,783.23
2017-11-11T00:46:50.571Z,783.24
2017-11-11T00:46:54.915Z,783.25
2017-11-11T00:46:59.281Z,783.24
2017-11-11T00:47:03.473Z,783.27
2017-11-11T00:47:07.557Z,783.23
2017-11-11T00:47:11.951Z,783.18
2017-11-11T00:47:16.302Z,783.23
2017-11-11T00:47:20.658Z,783.21
2017-11-11T00:47:24.894Z,783.24
2017-11-11T00:47:28.980Z,783.23
2017-11-11T00:47:33.346Z,783.25
2017-11-11T00:47:37.742Z,783.24
2017-11-11T00:47:42.223Z,783.23
2017-11-11T00:47:46.593Z,783.24
2017-11-11T00:47:50.837Z,783.23
2017-11-11T00:47:55.193Z,783.21
2017-11-11T00:47:59.698Z,783.21
2017-11-11T00:48:04.190Z,783.25
2017-11-11T00:48:08.285Z,783.23
2017-11-11T00:48:12.638Z,783.24
2017-11-11T00:48:17.010Z,783.27
2017-11-11T00:48:21.495Z,783.23
2017-11-11T00:48:25.722Z,783.22
2017-11-11T00:48:29.988Z,783.21
2017-11-11T00:48:34.388Z,783.21
2017-11-11T00:48:38.899Z,783.24
2017-11-11T00:48:43.250Z,783.26
2017-11-11T00:48:47.650Z,783.22
2017-11-11T00:48:52.134Z,783.24
2017-11-11T00:48:56.481Z,783.22
2017-11-11T00:49:01.000Z,783.27
2017-11-11T00:49:05.492Z,783.28
2017-11-11T00:49:09.986Z,783.26
2017-11-11T00:49:14.481Z,783.25
2017-11-11T00:49:18.837Z,783.27
2017-11-11T00:49:23.190Z,783.2
2017-11-11T00:49:27.430Z,783.2
2017-11-11T00:49:31.927Z,783.23
2017-11-11T00:49:36.418Z,783.26
2017-11-11T00:49:40.936Z,783.24
2017-11-11T00:49:45.291Z,783.27
2017-11-11T00:49:49.659Z,783.25
2017-11-11T00:49:54.022Z,783.22
2017-11-11T00:49:58.120Z,783.25
2017-11-11T00:50:02.485Z,783.23
2017-11-11T00:50:06.998Z,783.25
2017-11-11T00:50:11.389Z,783.23
2017-11-11T00:50:15.752Z,783.23
2017-11-11T00:50:20.257Z,783.25
2017-11-11T00:50:24.351Z,783.26
2017-11-11T00:50:28.706Z,783.24
2017-11-11T00:50:33.204Z,783.24
2017-11-11T00:50:37.694Z,783.21
2017-11-11T00:50:42.049Z,783.24
2017-11-11T00:50:46.556Z,783.23
2017-11-11T00:50:51.042Z,783.24
2017-11-11T00:50:55.525Z,783.23
2017-11-11T00:50:59.882Z,783.23
2017-11-11T00:51:04.377Z,783.26
2017-11-11T00:51:08.877Z,783.22
2017-11-11T00:51:13.422Z,783.19
2017-11-11T00:51:17.909Z,783.19
2017-11-11T00:51:22.279Z,783.27
2017-11-11T00:51:26.393Z,783.25
2017-11-11T00:51:30.879Z,783.28
2017-11-11T00:51:35.232Z,783.24
2017-11-11T00:51:39.475Z,783.25
2017-11-11T00:51:43.993Z,783.23
2017-11-11T00:51:48.492Z,783.23
2017-11-11T00:51:52.858Z,783.26
2017-11-11T00:51:57.353Z,783.24
2017-11-11T00:52:01.759Z,783.27
2017-11-11T00:52:06.252Z,783.24
2017-11-11T00:52:10.766Z,783.22
2017-11-11T00:52:15.002Z,783.27
2017-11-11T00:52:19.498Z,783.22
2017-11-11T00:52:23.879Z,783.23
2017-11-11T00:52:28.232Z,783.23
2017-11-11T00:52:32.726Z,783.26
2017-11-11T00:52:37.080Z,783.24
2017-11-11T00:52:41.429Z,783.25
2017-11-11T00:52:45.791Z,783.26
2017-11-11T00:52:50.146Z,783.18
2017-11-11T00:52:54.495Z,783.21
2017-11-11T00:52:58.857Z,783.23
2017-11-11T00:53:18.009Z,783.2
2017-11-11T00:53:22.492Z,783.27
2017-11-11T00:53:26.598Z,783.26
2017-11-11T00:53:30.950Z,783.27
2017-11-11T00:53:35.294Z,783.28
2017-11-11T00:53:39.676Z,783.26
2017-11-11T00:53:44.208Z,783.26
2017-11-11T00:53:48.571Z,783.25
2017-11-11T00:53:53.078Z,783.24
2017-11-11T00:53:57.433Z,783.25
2017-11-11T00:54:02.037Z,783.24
2017-11-11T00:54:06.409Z,783.26
2017-11-11T00:54:10.635Z,783.2
2017-11-11T00:54:14.988Z,783.25
2017-11-11T00:54:19.356Z,783.23
2017-11-11T00:54:23.740Z,783.27
2017-11-11T00:54:28.236Z,783.25
2017-11-11T00:54:32.457Z,783.26
2017-11-11T00:54:36.806Z,783.29
2017-11-11T00:54:41.292Z,783.24
2017-11-11T00:54:45.550Z,783.26
2017-11-11T00:54:50.042Z,783.26
2017-11-11T00:54:54.393Z,783.25
2017-11-11T00:54:58.626Z,783.28
2017-11-11T00:55:03.253Z,783.28
2017-11-11T00:55:07.518Z,783.24